Time;durP1;ratioP1;P1;durP2;ratioP2;P2;SDS_P1;SDS_P2;PMS_P1;PMS_P2;Temp;Humidity;BMP_temperature;BMP_pressure;BME280_temperature;BME280_humidity;BME280_pressure;Samples;Min_cycle;Max_cycle;Signal;HPM_P1;HPM_P2
2021/08/03 00:02:03;;;;;;;2.33;1.40;;;16.20;99.90;;;;;;4920349;29;20556;-76
2021/08/03 00:04:38;;;;;;;2.47;1.73;;;16.20;99.90;;;;;;4920302;29;20481;-76
2021/08/03 00:07:09;;;;;;;1.93;1.30;;;16.20;99.90;;;;;;4920676;29;20460;-75
2021/08/03 00:09:37;;;;;;;2.63;1.27;;;16.10;99.90;;;;;;4920406;29;20773;-75
2021/08/03 00:12:05;;;;;;;2.90;1.50;;;16.10;99.90;;;;;;4920184;29;20493;-75
2021/08/03 00:14:32;;;;;;;2.97;1.80;;;16.10;99.90;;;;;;4920105;29;20497;-75
2021/08/03 00:17:00;;;;;;;3.77;1.67;;;16.10;99.90;;;;;;4920053;29;20457;-75
2021/08/03 00:19:27;;;;;;;1.60;1.30;;;16.10;99.90;;;;;;4919998;29;20470;-75
2021/08/03 00:21:55;;;;;;;4.40;1.70;;;16.10;99.90;;;;;;4920095;29;20473;-75
2021/08/03 00:24:23;;;;;;;3.27;1.47;;;16.10;99.90;;;;;;4920116;29;20478;-76
2021/08/03 00:26:50;;;;;;;2.57;1.47;;;16.10;99.90;;;;;;4920026;29;20548;-75
2021/08/03 00:29:17;;;;;;;6.20;1.73;;;16.10;99.90;;;;;;4919286;29;20949;-77
2021/08/03 00:31:44;;;;;;;2.47;1.93;;;16.10;99.90;;;;;;4920023;29;20826;-75
2021/08/03 00:34:12;;;;;;;2.17;1.67;;;16.10;99.90;;;;;;4919963;29;20466;-75
2021/08/03 00:36:38;;;;;;;3.00;2.00;;;16.10;99.90;;;;;;4919832;29;20465;-75
2021/08/03 00:39:07;;;;;;;4.53;2.13;;;16.10;99.90;;;;;;4920016;29;20469;-75
2021/08/03 00:41:39;;;;;;;3.87;1.40;;;16.10;99.90;;;;;;4919100;29;20493;-76
2021/08/03 00:44:06;;;;;;;2.63;1.60;;;16.00;99.90;;;;;;4920227;29;20448;-76
2021/08/03 00:46:33;;;;;;;2.53;1.30;;;16.00;99.90;;;;;;4919982;29;20461;-76
2021/08/03 00:49:00;;;;;;;3.20;1.90;;;16.00;99.90;;;;;;4919625;29;20466;-76
2021/08/03 00:51:27;;;;;;;2.80;1.23;;;16.00;99.90;;;;;;4918575;29;20499;-75
2021/08/03 00:53:54;;;;;;;3.17;1.50;;;16.00;99.90;;;;;;4919448;29;20841;-75
2021/08/03 00:56:22;;;;;;;3.10;1.80;;;16.00;99.90;;;;;;4919171;29;20824;-75
2021/08/03 00:58:49;;;;;;;3.20;1.67;;;16.00;99.90;;;;;;4919417;29;20926;-77
2021/08/03 01:01:15;;;;;;;1.73;1.30;;;16.00;99.90;;;;;;4919179;29;20473;-75
2021/08/03 01:03:42;;;;;;;2.30;1.53;;;16.00;99.90;;;;;;4919015;29;20465;-76
2021/08/03 01:06:14;;;;;;;2.10;1.47;;;16.10;99.90;;;;;;4920455;29;20893;-75
2021/08/03 01:08:53;;;;;;;3.30;1.43;;;16.00;99.90;;;;;;4919041;29;20458;-76
2021/08/03 01:11:26;;;;;;;1.90;1.57;;;16.10;99.90;;;;;;4918744;29;20958;-75
2021/08/03 01:14:02;;;;;;;2.57;1.70;;;16.00;99.90;;;;;;4918567;29;20493;-75
2021/08/03 01:16:37;;;;;;;2.57;1.60;;;16.00;99.90;;;;;;4919076;29;20449;-75
2021/08/03 01:19:18;;;;;;;1.77;1.40;;;16.00;99.90;;;;;;4918591;29;20452;-74
2021/08/03 01:21:48;;;;;;;1.60;1.23;;;16.00;99.90;;;;;;4918711;29;20907;-75
2021/08/03 01:24:25;;;;;;;1.90;1.50;;;16.00;99.90;;;;;;4919342;29;20894;-75
2021/08/03 01:27:18;;;;;;;4.03;1.80;;;16.00;99.90;;;;;;4919429;29;20937;-75
2021/08/03 01:29:49;;;;;;;2.67;1.60;;;16.00;99.90;;;;;;4916825;29;20473;-75
2021/08/03 01:32:23;;;;;;;2.80;1.53;;;16.00;99.90;;;;;;4919231;29;20450;-75
2021/08/03 01:34:52;;;;;;;3.87;1.27;;;16.00;99.90;;;;;;4918579;29;20445;-75
2021/08/03 01:37:22;;;;;;;4.00;1.47;;;15.90;99.90;;;;;;4919184;29;20781;-75
2021/08/03 01:39:52;;;;;;;2.33;1.43;;;16.00;99.90;;;;;;4920849;29;20446;-76
2021/08/03 01:42:21;;;;;;;3.57;1.67;;;15.90;99.90;;;;;;4926423;29;20461;-75
2021/08/03 01:44:51;;;;;;;4.53;1.77;;;15.90;99.90;;;;;;4925089;29;20814;-75
2021/08/03 01:47:19;;;;;;;1.67;1.10;;;15.90;99.90;;;;;;4920715;29;20469;-75
2021/08/03 01:49:47;;;;;;;1.63;1.53;;;15.90;99.90;;;;;;4919615;29;20466;-75
2021/08/03 01:52:15;;;;;;;2.07;1.30;;;15.90;99.90;;;;;;4919320;29;20485;-75
2021/08/03 01:54:45;;;;;;;1.90;1.80;;;15.80;99.90;;;;;;4920000;29;20525;-75
2021/08/03 01:57:16;;;;;;;3.40;2.00;;;15.80;99.90;;;;;;4920079;29;20457;-75
2021/08/03 01:59:44;;;;;;;3.87;2.20;;;15.80;99.90;;;;;;4920385;29;20465;-76
2021/08/03 02:02:12;;;;;;;6.20;2.00;;;15.80;99.90;;;;;;4921397;29;20785;-76
2021/08/03 02:04:39;;;;;;;6.80;1.97;;;15.80;99.90;;;;;;4923949;29;21057;-76
2021/08/03 02:07:07;;;;;;;4.83;2.00;;;15.70;99.90;;;;;;4923587;29;20923;-75
2021/08/03 02:09:36;;;;;;;2.33;2.13;;;15.70;99.90;;;;;;4924441;29;20473;-75
2021/08/03 02:12:03;;;;;;;1.87;1.50;;;15.70;99.90;;;;;;4923842;29;20491;-75
2021/08/03 02:14:30;;;;;;;2.93;1.97;;;15.70;99.90;;;;;;4923597;29;20493;-76
2021/08/03 02:16:57;;;;;;;3.23;2.07;;;15.60;99.90;;;;;;4923602;29;20480;-75
2021/08/03 02:19:25;;;;;;;6.40;2.10;;;15.60;99.90;;;;;;4922904;29;20461;-75
2021/08/03 02:21:53;;;;;;;2.37;2.03;;;15.60;99.90;;;;;;4922474;29;20470;-75
2021/08/03 02:24:19;;;;;;;6.30;2.47;;;15.60;99.90;;;;;;4922350;29;20472;-75
2021/08/03 02:26:46;;;;;;;3.47;2.20;;;15.60;99.90;;;;;;4922304;29;20466;-75
2021/08/03 02:29:13;;;;;;;2.43;2.23;;;15.60;99.90;;;;;;4922279;29;20465;-75
2021/08/03 02:31:43;;;;;;;4.70;2.23;;;15.60;99.90;;;;;;4922285;29;20481;-75
2021/08/03 02:34:17;;;;;;;3.00;2.07;;;15.60;99.90;;;;;;4921978;29;20449;-75
2021/08/03 02:36:48;;;;;;;3.17;1.93;;;15.60;99.90;;;;;;4921815;29;20473;-75
2021/08/03 02:39:17;;;;;;;3.60;1.93;;;15.60;99.90;;;;;;4921299;29;20457;-75
2021/08/03 02:41:45;;;;;;;2.77;1.83;;;15.60;99.90;;;;;;4922005;29;20469;-75
2021/08/03 02:44:13;;;;;;;2.17;1.70;;;15.60;99.90;;;;;;4921920;29;20521;-75
2021/08/03 02:46:41;;;;;;;2.40;2.20;;;15.60;99.90;;;;;;4922301;29;20492;-75
2021/08/03 02:49:13;;;;;;;3.10;1.83;;;15.50;99.90;;;;;;4923031;29;20547;-75
2021/08/03 02:51:42;;;;;;;3.40;1.87;;;15.50;99.90;;;;;;4925767;29;20970;-75
2021/08/03 02:54:22;;;;;;;1.93;1.57;;;15.40;99.90;;;;;;4922030;29;20537;-75
2021/08/03 02:56:51;;;;;;;2.07;1.57;;;15.40;99.90;;;;;;4921874;29;20449;-75
2021/08/03 02:59:20;;;;;;;1.83;1.60;;;15.40;99.90;;;;;;4921366;29;20643;-75
2021/08/03 03:01:48;;;;;;;3.20;2.23;;;15.40;99.90;;;;;;4921475;29;20765;-75
2021/08/03 03:04:20;;;;;;;2.73;1.83;;;15.40;99.90;;;;;;4921357;29;20836;-75
2021/08/03 03:06:53;;;;;;;4.03;1.80;;;15.40;99.90;;;;;;4921501;29;20832;-76
2021/08/03 03:09:23;;;;;;;2.30;1.63;;;15.40;99.90;;;;;;4921329;29;20536;-75
2021/08/03 03:11:53;;;;;;;2.20;2.00;;;15.30;99.90;;;;;;4921296;29;20489;-75
2021/08/03 03:14:22;;;;;;;1.83;1.63;;;15.30;99.90;;;;;;4920025;29;20572;-75
2021/08/03 03:16:51;;;;;;;1.80;1.60;;;15.30;99.90;;;;;;4921406;29;20472;-75
2021/08/03 03:19:18;;;;;;;2.70;1.53;;;15.30;99.90;;;;;;4920947;29;20915;-74
2021/08/03 03:21:47;;;;;;;3.60;1.37;;;15.30;99.90;;;;;;4921507;29;20468;-75
2021/08/03 03:24:15;;;;;;;3.07;2.27;;;15.30;99.90;;;;;;4921134;29;20536;-75
2021/08/03 03:26:45;;;;;;;2.30;2.10;;;15.40;99.90;;;;;;4920965;29;20476;-75
2021/08/03 03:29:14;;;;;;;2.13;1.87;;;15.40;99.90;;;;;;4921350;29;20465;-75
2021/08/03 03:31:43;;;;;;;3.50;2.07;;;15.40;99.90;;;;;;4920980;29;20485;-75
2021/08/03 03:34:10;;;;;;;2.03;1.70;;;15.40;99.90;;;;;;4921255;29;20480;-75
2021/08/03 03:36:39;;;;;;;2.37;1.70;;;15.40;99.90;;;;;;4920811;29;20540;-75
2021/08/03 03:39:11;;;;;;;3.77;2.40;;;15.40;99.90;;;;;;4921033;29;20465;-75
2021/08/03 03:41:38;;;;;;;3.90;2.47;;;15.50;99.90;;;;;;4920476;29;20874;-75
2021/08/03 03:44:07;;;;;;;4.17;1.70;;;15.50;99.90;;;;;;4920838;29;20801;-75
2021/08/03 03:46:43;;;;;;;2.10;1.77;;;15.50;99.90;;;;;;4920900;29;20465;-75
2021/08/03 03:49:12;;;;;;;3.83;1.90;;;15.50;99.90;;;;;;4920278;29;20449;-75
2021/08/03 03:51:42;;;;;;;5.33;2.20;;;15.50;99.90;;;;;;4920483;29;20486;-74
2021/08/03 03:54:13;;;;;;;2.63;1.63;;;15.60;99.90;;;;;;4920618;29;20461;-76
2021/08/03 03:56:42;;;;;;;4.03;1.93;;;15.60;99.90;;;;;;4920692;29;20450;-75
2021/08/03 03:59:12;;;;;;;1.57;1.47;;;15.60;99.90;;;;;;4920832;29;20476;-75
2021/08/03 04:01:41;;;;;;;2.20;1.77;;;15.60;99.90;;;;;;4920365;29;20489;-75
2021/08/03 04:04:11;;;;;;;2.57;1.70;;;15.60;99.90;;;;;;4920588;29;20833;-75
2021/08/03 04:06:38;;;;;;;2.83;1.90;;;15.60;99.90;;;;;;4920555;29;20571;-74
2021/08/03 04:09:05;;;;;;;2.20;1.60;;;15.60;99.90;;;;;;4920447;29;20466;-75
2021/08/03 04:11:32;;;;;;;1.80;1.40;;;15.70;99.90;;;;;;4920235;29;20489;-74
2021/08/03 04:13:59;;;;;;;1.80;1.60;;;15.70;99.90;;;;;;4919920;29;20493;-75
2021/08/03 04:16:27;;;;;;;2.07;1.60;;;15.70;99.90;;;;;;4920327;29;20469;-74
2021/08/03 04:18:54;;;;;;;3.07;1.87;;;15.70;99.90;;;;;;4920172;29;20481;-75
2021/08/03 04:21:20;;;;;;;1.77;1.53;;;15.70;99.90;;;;;;4920189;29;20461;-75
2021/08/03 04:23:47;;;;;;;3.30;1.80;;;15.80;99.90;;;;;;4920200;29;20915;-74
2021/08/03 04:26:14;;;;;;;2.33;2.13;;;15.80;99.90;;;;;;4919877;29;20808;-75
2021/08/03 04:28:40;;;;;;;1.83;1.60;;;15.80;99.90;;;;;;4919813;29;20473;-75
2021/08/03 04:31:10;;;;;;;4.83;1.60;;;15.80;99.90;;;;;;4919622;29;20997;-75
2021/08/03 04:33:38;;;;;;;3.13;1.47;;;15.80;99.90;;;;;;4919571;29;20461;-75
2021/08/03 04:36:05;;;;;;;3.27;1.90;;;15.90;99.90;;;;;;4919763;29;20873;-75
2021/08/03 04:38:32;;;;;;;3.40;2.03;;;15.90;99.90;;;;;;4919787;29;20472;-75
2021/08/03 04:40:58;;;;;;;3.40;1.70;;;16.00;99.90;;;;;;4919313;29;20462;-75
2021/08/03 04:43:25;;;;;;;2.70;2.40;;;16.00;99.90;;;;;;4919479;29;20469;-75
2021/08/03 04:45:52;;;;;;;3.57;2.13;;;16.10;99.90;;;;;;4919667;29;20469;-75
2021/08/03 04:48:19;;;;;;;3.23;1.80;;;16.10;99.90;;;;;;4919312;29;20469;-75
2021/08/03 04:50:47;;;;;;;1.90;1.80;;;16.10;99.90;;;;;;4919431;29;20469;-74
2021/08/03 04:53:13;;;;;;;2.87;2.07;;;16.20;99.90;;;;;;4919086;29;20549;-75
2021/08/03 04:55:40;;;;;;;3.20;2.37;;;16.20;99.90;;;;;;4919236;29;20860;-74
2021/08/03 04:58:07;;;;;;;4.00;2.10;;;16.30;99.90;;;;;;4919404;29;20462;-76
2021/08/03 05:00:34;;;;;;;2.10;1.80;;;16.30;99.90;;;;;;4919557;29;20461;-75
2021/08/03 05:03:00;;;;;;;2.70;1.77;;;16.30;99.90;;;;;;4919354;29;20457;-75
2021/08/03 05:05:27;;;;;;;3.57;2.17;;;16.30;99.90;;;;;;4919301;29;20468;-75
2021/08/03 05:07:57;;;;;;;3.13;2.30;;;16.40;99.90;;;;;;4919676;29;20477;-75
2021/08/03 05:10:24;;;;;;;4.70;2.50;;;16.40;99.90;;;;;;4919214;29;21001;-75
2021/08/03 05:12:50;;;;;;;3.00;1.90;;;16.40;99.90;;;;;;4919262;29;20485;-75
2021/08/03 05:15:18;;;;;;;3.30;2.13;;;16.50;99.90;;;;;;4919106;29;20493;-76
2021/08/03 05:17:44;;;;;;;3.43;1.97;;;16.50;99.90;;;;;;4919021;29;20529;-75
2021/08/03 05:20:12;;;;;;;4.80;1.87;;;16.50;99.90;;;;;;4919929;29;20465;-75
2021/08/03 05:22:39;;;;;;;2.57;2.27;;;16.50;99.90;;;;;;4920493;29;20462;-75
2021/08/03 05:25:09;;;;;;;3.70;2.00;;;16.60;99.90;;;;;;4919638;29;20559;-75
2021/08/03 05:27:35;;;;;;;6.83;2.47;;;16.60;99.90;;;;;;4919027;29;20465;-75
2021/08/03 05:30:02;;;;;;;8.50;2.30;;;16.60;99.90;;;;;;4919519;29;20465;-76
2021/08/03 05:32:29;;;;;;;3.30;2.07;;;16.70;99.90;;;;;;4919082;29;20485;-75
2021/08/03 05:34:55;;;;;;;4.07;2.30;;;16.70;99.90;;;;;;4918538;29;20489;-75
2021/08/03 05:37:22;;;;;;;3.23;1.93;;;16.70;99.90;;;;;;4918230;29;20517;-75
2021/08/03 05:39:49;;;;;;;3.60;1.90;;;16.80;99.90;;;;;;4918822;29;20532;-75
2021/08/03 05:42:19;;;;;;;6.50;2.03;;;16.80;99.90;;;;;;4918948;29;20472;-75
2021/08/03 05:44:45;;;;;;;3.07;1.60;;;16.80;99.90;;;;;;4918869;29;20473;-75
2021/08/03 05:47:12;;;;;;;3.77;2.33;;;16.80;99.90;;;;;;4918721;29;20465;-75
2021/08/03 05:49:39;;;;;;;2.47;1.67;;;16.80;99.90;;;;;;4918527;29;20954;-75
2021/08/03 05:52:06;;;;;;;2.33;2.00;;;16.80;99.90;;;;;;4918647;29;20489;-76
2021/08/03 05:54:33;;;;;;;4.50;1.90;;;16.90;99.90;;;;;;4918540;29;20465;-75
2021/08/03 05:56:59;;;;;;;3.47;2.50;;;16.90;99.90;;;;;;4918835;29;20465;-75
2021/08/03 05:59:27;;;;;;;3.10;1.77;;;17.00;99.90;;;;;;4918986;29;20541;-75
2021/08/03 06:01:54;;;;;;;4.47;2.07;;;17.10;99.90;;;;;;4918342;29;20461;-75
2021/08/03 06:04:21;;;;;;;3.20;1.80;;;17.20;99.90;;;;;;4918576;29;20809;-74
2021/08/03 06:06:50;;;;;;;3.37;1.80;;;17.20;99.90;;;;;;4918660;29;20855;-75
2021/08/03 06:09:19;;;;;;;5.67;2.37;;;17.30;99.90;;;;;;4918067;29;20465;-75
2021/08/03 06:11:48;;;;;;;2.80;1.70;;;17.40;99.90;;;;;;4918463;29;20497;-75
2021/08/03 06:14:22;;;;;;;4.67;2.20;;;17.50;99.90;;;;;;4918035;29;20489;-75
2021/08/03 06:16:54;;;;;;;3.30;2.00;;;17.50;99.90;;;;;;4918237;29;20450;-75
2021/08/03 06:19:26;;;;;;;4.97;2.03;;;17.50;99.90;;;;;;4918165;29;20460;-76
2021/08/03 06:21:57;;;;;;;10.00;1.83;;;17.40;99.90;;;;;;4917842;29;20876;-75
2021/08/03 06:24:24;;;;;;;4.73;2.50;;;17.20;99.90;;;;;;4917852;29;20895;-75
2021/08/03 06:26:51;;;;;;;3.47;1.90;;;17.10;99.90;;;;;;4918580;29;20472;-75
2021/08/03 06:29:19;;;;;;;2.87;2.10;;;17.00;99.90;;;;;;4918925;29;20848;-75
2021/08/03 06:31:47;;;;;;;8.70;2.50;;;17.00;99.90;;;;;;4918325;29;20499;-75
2021/08/03 06:34:17;;;;;;;4.50;2.20;;;17.00;99.90;;;;;;4918156;29;20779;-75
2021/08/03 06:36:44;;;;;;;2.90;2.00;;;17.00;99.90;;;;;;4918288;29;20469;-75
2021/08/03 06:39:10;;;;;;;5.67;2.40;;;17.00;99.90;;;;;;4918271;29;20465;-75
2021/08/03 06:41:40;;;;;;;3.43;2.70;;;17.10;99.90;;;;;;4918469;29;20469;-75
2021/08/03 06:44:21;;;;;;;4.20;2.40;;;17.20;99.90;;;;;;4918812;29;20475;-75
2021/08/03 06:46:54;;;;;;;6.00;2.10;;;17.20;99.90;;;;;;4917733;29;20523;-75
2021/08/03 06:49:23;;;;;;;4.33;2.03;;;17.20;99.90;;;;;;4921192;29;20465;-75
2021/08/03 06:51:55;;;;;;;5.23;1.93;;;17.20;99.90;;;;;;4921612;29;20966;-75
2021/08/03 06:54:23;;;;;;;3.87;2.10;;;17.30;99.90;;;;;;4921922;29;20481;-75
2021/08/03 06:56:51;;;;;;;4.10;2.20;;;17.20;99.90;;;;;;4922629;29;20465;-75
2021/08/03 06:59:19;;;;;;;4.87;2.33;;;17.30;99.90;;;;;;4922090;29;20531;-75
2021/08/03 07:01:48;;;;;;;3.63;1.97;;;17.30;99.90;;;;;;4922084;29;20508;-74
2021/08/03 07:04:19;;;;;;;3.07;2.20;;;17.40;99.90;;;;;;4921930;29;20473;-75
2021/08/03 07:06:49;;;;;;;5.27;2.00;;;17.50;99.90;;;;;;4921772;29;20449;-75
2021/08/03 07:09:16;;;;;;;2.80;1.70;;;17.70;99.90;;;;;;4921551;29;20516;-75
2021/08/03 07:11:43;;;;;;;2.60;1.87;;;17.70;99.90;;;;;;4921372;29;20465;-75
2021/08/03 07:14:12;;;;;;;3.50;2.10;;;17.70;99.90;;;;;;4921273;29;20584;-75
2021/08/03 07:16:41;;;;;;;2.87;2.07;;;17.60;99.90;;;;;;4921371;29;20461;-74
2021/08/03 07:19:09;;;;;;;3.97;2.17;;;17.60;99.90;;;;;;4921489;29;20462;-74
2021/08/03 07:21:39;;;;;;;3.00;1.70;;;17.70;99.90;;;;;;4921279;29;20471;-75
2021/08/03 07:24:11;;;;;;;2.90;1.90;;;17.70;99.90;;;;;;4922140;29;20815;-75
2021/08/03 07:26:39;;;;;;;3.80;1.60;;;17.70;99.90;;;;;;4921537;29;20454;-75
2021/08/03 07:29:06;;;;;;;3.70;2.23;;;17.70;99.90;;;;;;4921093;29;20473;-75
2021/08/03 07:31:33;;;;;;;4.40;1.97;;;17.80;99.90;;;;;;4921071;29;20488;-75
2021/08/03 07:33:59;;;;;;;2.67;1.93;;;17.90;99.90;;;;;;4920785;29;20489;-74
2021/08/03 07:36:26;;;;;;;2.40;1.80;;;18.00;99.90;;;;;;4921364;29;20469;-76
2021/08/03 07:38:57;;;;;;;2.33;1.80;;;18.10;99.90;;;;;;4920975;29;20476;-75
2021/08/03 07:41:26;;;;;;;3.47;1.93;;;18.10;99.90;;;;;;4920998;29;20458;-75
2021/08/03 07:43:53;;;;;;;2.63;2.10;;;18.10;99.90;;;;;;4920647;29;20525;-75
2021/08/03 07:46:20;;;;;;;3.17;1.57;;;18.00;99.90;;;;;;4921206;29;20493;-75
2021/08/03 07:48:50;;;;;;;3.83;1.87;;;18.00;99.90;;;;;;4920850;29;20454;-74
2021/08/03 07:51:17;;;;;;;2.20;2.00;;;18.00;99.90;;;;;;4920961;29;20460;-75
2021/08/03 07:53:44;;;;;;;4.27;2.27;;;18.10;99.90;;;;;;4920138;29;20998;-76
2021/08/03 07:56:10;;;;;;;2.97;1.97;;;18.20;99.90;;;;;;4920855;29;20461;-74
2021/08/03 07:58:39;;;;;;;3.00;1.90;;;18.30;99.90;;;;;;4920793;29;20469;-74
2021/08/03 08:01:06;;;;;;;3.93;1.70;;;18.40;99.90;;;;;;4919582;29;20465;-74
2021/08/03 08:03:33;;;;;;;3.60;1.90;;;18.50;99.90;;;;;;4920366;29;20472;-74
2021/08/03 08:06:05;;;;;;;2.30;1.60;;;18.60;99.90;;;;;;4920142;29;20469;-74
2021/08/03 08:08:32;;;;;;;5.53;1.60;;;18.70;99.90;;;;;;4920500;29;20446;-74
2021/08/03 08:10:59;;;;;;;2.17;1.10;;;18.80;99.90;;;;;;4920346;29;20878;-74
2021/08/03 08:13:26;;;;;;;2.47;1.40;;;18.90;99.90;;;;;;4920136;29;20504;-74
2021/08/03 08:15:55;;;;;;;3.33;1.40;;;18.90;99.90;;;;;;4920422;29;20472;-74
2021/08/03 08:18:21;;;;;;;2.67;1.60;;;19.00;99.90;;;;;;4920442;29;20465;-74
2021/08/03 08:20:48;;;;;;;3.00;1.30;;;19.10;99.90;;;;;;4920657;29;20781;-75
2021/08/03 08:23:16;;;;;;;3.43;1.80;;;19.10;99.90;;;;;;4920561;29;20458;-74
2021/08/03 08:25:43;;;;;;;4.40;1.67;;;19.20;99.90;;;;;;4920225;29;20484;-74
2021/08/03 08:28:10;;;;;;;2.70;1.83;;;19.30;99.90;;;;;;4920327;29;20461;-74
2021/08/03 08:30:39;;;;;;;4.20;1.60;;;19.50;99.90;;;;;;4920439;29;20461;-74
2021/08/03 08:33:07;;;;;;;4.80;1.70;;;19.60;99.90;;;;;;4920278;29;20552;-73
2021/08/03 08:35:35;;;;;;;4.83;1.30;;;19.70;99.90;;;;;;4920175;29;20477;-73
2021/08/03 08:38:02;;;;;;;7.00;2.60;;;19.80;99.90;;;;;;4920464;29;20457;-73
2021/08/03 08:40:29;;;;;;;2.47;1.60;;;19.90;99.90;;;;;;4920439;29;20923;-73
2021/08/03 08:42:56;;;;;;;2.17;1.33;;;19.90;99.90;;;;;;4920416;29;20827;-73
2021/08/03 08:45:22;;;;;;;4.80;1.83;;;19.80;99.90;;;;;;4920679;29;20465;-73
2021/08/03 08:47:51;;;;;;;3.40;1.60;;;19.80;99.90;;;;;;4920946;29;20476;-73
2021/08/03 08:50:21;;;;;;;4.17;1.57;;;19.80;99.90;;;;;;4922847;29;20466;-73
2021/08/03 08:52:50;;;;;;;2.50;1.30;;;19.80;99.90;;;;;;4924429;29;20485;-73
2021/08/03 08:55:17;;;;;;;2.03;0.90;;;20.00;99.90;;;;;;4920712;29;20469;-73
2021/08/03 08:57:46;;;;;;;2.93;2.07;;;20.10;99.90;;;;;;4920328;29;20472;-73
2021/08/03 09:00:14;;;;;;;5.00;1.23;;;20.20;99.90;;;;;;4920823;29;20558;-73
2021/08/03 09:02:42;;;;;;;2.73;1.50;;;20.40;99.90;;;;;;4925369;29;20500;-73
2021/08/03 09:05:11;;;;;;;4.07;1.80;;;20.40;99.90;;;;;;4927149;29;20496;-73
2021/08/03 09:07:49;;;;;;;3.60;1.80;;;20.50;99.90;;;;;;4928022;29;20489;-73
2021/08/03 09:10:36;;;;;;;6.23;1.53;;;20.50;99.90;;;;;;4922473;29;20481;-74
2021/08/03 09:13:06;;;;;;;2.37;1.47;;;20.60;99.90;;;;;;4925816;29;20485;-72
2021/08/03 09:15:35;;;;;;;2.37;1.37;;;20.70;99.90;;;;;;4928778;29;20456;-72
2021/08/03 09:18:17;;;;;;;2.80;1.40;;;20.70;99.90;;;;;;4930422;29;20542;-73
2021/08/03 09:20:45;;;;;;;5.47;4.40;;;20.70;99.90;;;;;;4928616;29;20445;-73
2021/08/03 09:23:14;;;;;;;1.90;1.63;;;20.70;99.90;;;;;;4921541;29;20915;-73
2021/08/03 09:25:52;;;;;;;1.93;1.60;;;20.70;99.90;;;;;;4927166;29;20458;-73
2021/08/03 09:28:19;;;;;;;3.53;1.70;;;20.80;99.90;;;;;;4927144;29;20449;-72
2021/08/03 09:30:46;;;;;;;3.03;1.27;;;20.80;99.90;;;;;;4933127;29;20533;-72
2021/08/03 09:33:22;;;;;;;1.40;1.17;;;20.80;99.90;;;;;;4932278;29;20487;-73
2021/08/03 09:35:49;;;;;;;3.47;1.00;;;20.90;99.90;;;;;;4924778;29;20457;-72
2021/08/03 09:38:19;;;;;;;3.20;0.90;;;20.90;99.90;;;;;;4919371;29;20457;-73
2021/08/03 09:40:46;;;;;;;2.03;1.00;;;20.90;99.90;;;;;;4919523;29;20477;-73
2021/08/03 09:43:15;;;;;;;2.37;1.13;;;20.90;99.90;;;;;;4920953;29;20457;-74
2021/08/03 09:45:57;;;;;;;2.27;1.23;;;20.70;99.90;;;;;;4919510;29;20492;-73
2021/08/03 09:48:25;;;;;;;3.73;1.27;;;20.60;99.90;;;;;;4918475;29;20775;-73
2021/08/03 09:50:58;;;;;;;3.93;2.33;;;20.60;99.90;;;;;;4919058;29;20465;-73
2021/08/03 09:53:46;;;;;;;2.00;1.20;;;20.60;99.90;;;;;;4919479;29;20511;-73
2021/08/03 09:56:18;;;;;;;3.57;1.53;;;20.70;99.90;;;;;;4918160;29;20487;-72
2021/08/03 09:58:57;;;;;;;2.03;1.27;;;20.70;99.90;;;;;;4919192;29;20466;-72
2021/08/03 10:01:25;;;;;;;1.70;1.13;;;20.70;99.90;;;;;;4918971;29;20472;-73
2021/08/03 10:03:53;;;;;;;1.70;1.03;;;20.70;99.90;;;;;;4918506;29;20468;-72
2021/08/03 10:06:23;;;;;;;4.70;1.23;;;20.90;99.90;;;;;;4918734;29;20469;-72
2021/08/03 10:08:52;;;;;;;2.90;1.20;;;21.10;99.90;;;;;;4919311;29;20465;-73
2021/08/03 10:11:20;;;;;;;2.03;1.30;;;21.30;99.90;;;;;;4919187;29;20465;-73
2021/08/03 10:13:48;;;;;;;1.33;1.00;;;21.30;99.90;;;;;;4918123;29;20504;-73
2021/08/03 10:16:17;;;;;;;3.80;1.30;;;21.30;99.90;;;;;;4918794;29;20987;-73
2021/08/03 10:18:45;;;;;;;2.07;1.07;;;21.40;99.90;;;;;;4918792;29;20461;-73
2021/08/03 10:21:19;;;;;;;2.57;1.33;;;21.40;99.90;;;;;;4918801;29;20942;-73
2021/08/03 10:23:47;;;;;;;2.00;1.03;;;21.30;99.90;;;;;;4921426;29;20442;-73
2021/08/03 10:26:16;;;;;;;1.73;1.20;;;21.00;99.90;;;;;;4922385;29;20537;-73
2021/08/03 10:28:43;;;;;;;6.03;1.30;;;21.00;99.90;;;;;;4921961;29;20479;-72
2021/08/03 10:31:39;;;;;;;1.23;1.10;;;21.10;99.90;;;;;;4922073;29;20475;-72
2021/08/03 10:34:07;;;;;;;1.50;1.10;;;21.20;99.90;;;;;;4921857;29;20478;-73
2021/08/03 10:36:47;;;;;;;3.77;1.17;;;21.30;99.90;;;;;;4921807;29;20461;-71
2021/08/03 10:39:16;;;;;;;2.97;1.07;;;21.50;99.90;;;;;;4922024;29;20450;-74
2021/08/03 10:42:13;;;;;;;1.60;0.90;;;21.30;99.90;;;;;;4921755;29;20881;-73
2021/08/03 10:44:45;;;;;;;1.83;1.10;;;21.20;99.90;;;;;;4921815;29;20453;-73
2021/08/03 10:47:48;;;;;;;2.47;1.10;;;21.10;99.90;;;;;;4921586;29;20445;-73
2021/08/03 10:50:32;;;;;;;6.37;1.20;;;21.20;99.90;;;;;;4921372;29;20902;-73
2021/08/03 10:53:02;;;;;;;2.03;1.20;;;21.30;99.90;;;;;;4921572;29;20454;-73
2021/08/03 10:55:31;;;;;;;1.97;1.20;;;21.50;99.90;;;;;;4920690;29;20966;-72
2021/08/03 10:58:30;;;;;;;2.20;1.13;;;21.70;99.90;;;;;;4921710;29;20611;-73
2021/08/03 11:01:00;;;;;;;1.43;1.00;;;21.80;99.90;;;;;;4921399;29;20797;-73
2021/08/03 11:03:43;;;;;;;2.33;1.03;;;22.00;99.90;;;;;;4921621;29;20461;-73
2021/08/03 11:06:33;;;;;;;2.30;1.23;;;22.10;99.90;;;;;;4921734;29;20551;-73
2021/08/03 11:09:00;;;;;;;3.30;1.10;;;22.10;99.90;;;;;;4921759;29;20832;-72
2021/08/03 11:11:28;;;;;;;1.90;1.07;;;22.20;99.90;;;;;;4921109;29;20472;-73
2021/08/03 11:13:57;;;;;;;6.27;1.87;;;22.30;99.90;;;;;;4921405;29;20500;-73
2021/08/03 11:16:55;;;;;;;1.77;1.10;;;22.50;99.90;;;;;;4920780;29;20475;-73
2021/08/03 11:19:34;;;;;;;2.13;1.50;;;22.70;99.90;;;;;;4920951;29;20903;-73
2021/08/03 11:22:01;;;;;;;2.57;1.30;;;22.80;99.90;;;;;;4921624;29;20552;-73
2021/08/03 11:24:34;;;;;;;1.93;1.20;;;23.20;99.90;;;;;;4921522;29;20537;-73
2021/08/03 11:27:01;;;;;;;2.03;1.10;;;23.30;99.90;;;;;;4921123;29;20457;-74
2021/08/03 11:29:35;;;;;;;2.97;1.33;;;23.40;99.90;;;;;;4920903;29;20937;-73
2021/08/03 11:32:03;;;;;;;2.23;1.20;;;23.80;99.90;;;;;;4921336;29;20505;-74
2021/08/03 11:34:32;;;;;;;1.50;1.30;;;24.30;99.90;;;;;;4920042;29;20489;-74
2021/08/03 11:37:02;;;;;;;3.53;1.30;;;24.90;99.90;;;;;;4920630;29;20480;-74
2021/08/03 11:39:31;;;;;;;2.73;1.20;;;25.60;99.90;;;;;;4920852;29;20895;-75
2021/08/03 11:41:58;;;;;;;7.83;1.50;;;26.00;99.90;;;;;;4921008;29;20469;-74
2021/08/03 11:44:25;;;;;;;2.20;1.27;;;26.50;99.90;;;;;;4921052;29;20458;-73
2021/08/03 11:47:00;;;;;;;1.97;1.33;;;26.60;99.90;;;;;;4921378;29;20461;-73
2021/08/03 11:49:35;;;;;;;1.63;1.30;;;27.20;99.90;;;;;;4922801;29;20456;-73
2021/08/03 11:52:11;;;;;;;1.73;1.30;;;27.80;99.90;;;;;;4922466;29;20555;-71
2021/08/03 11:54:38;;;;;;;2.70;1.47;;;28.20;99.90;;;;;;4922613;29;20489;-74
2021/08/03 11:57:38;;;;;;;1.43;1.30;;;28.40;99.90;;;;;;4921187;29;20538;-73
2021/08/03 12:00:29;;;;;;;3.00;1.90;;;28.20;99.90;;;;;;4921599;29;20465;-73
2021/08/03 12:02:58;;;;;;;2.70;1.43;;;28.20;99.70;;;;;;4921684;29;20450;-73
2021/08/03 12:05:27;;;;;;;2.83;1.33;;;28.20;98.40;;;;;;4922553;29;20461;-73
2021/08/03 12:08:04;;;;;;;1.30;1.20;;;28.30;98.40;;;;;;4922758;29;20483;-73
2021/08/03 12:10:33;;;;;;;1.67;1.30;;;28.60;97.80;;;;;;4923346;29;20787;-73
2021/08/03 12:13:00;;;;;;;3.33;1.43;;;29.00;96.70;;;;;;4922817;29;20472;-73
2021/08/03 12:15:27;;;;;;;7.80;1.57;;;29.30;96.00;;;;;;4920800;29;20974;-73
2021/08/03 12:18:10;;;;;;;1.40;1.23;;;29.20;93.40;;;;;;4920633;29;20810;-73
2021/08/03 12:20:40;;;;;;;2.60;1.27;;;29.20;92.70;;;;;;4920041;29;20516;-73
2021/08/03 12:23:22;;;;;;;1.77;1.37;;;29.10;93.60;;;;;;4920487;29;20450;-72
2021/08/03 12:26:00;;;;;;;1.60;1.50;;;29.30;95.00;;;;;;4920111;29;20516;-73
2021/08/03 12:28:35;;;;;;;4.33;1.77;;;30.20;93.20;;;;;;4920186;29;20815;-73
2021/08/03 12:31:24;;;;;;;1.80;1.10;;;30.30;90.80;;;;;;4920093;29;20505;-73
2021/08/03 12:33:53;;;;;;;1.60;1.30;;;30.50;90.70;;;;;;4919697;29;20485;-73
2021/08/03 12:36:21;;;;;;;1.77;1.27;;;30.70;90.70;;;;;;4919655;29;20501;-73
2021/08/03 12:39:09;;;;;;;1.80;1.53;;;30.70;88.30;;;;;;4919679;29;20798;-73
2021/08/03 12:41:37;;;;;;;1.87;1.50;;;29.80;86.60;;;;;;4919819;29;20825;-73
2021/08/03 12:44:04;;;;;;;1.70;1.43;;;28.90;87.00;;;;;;4919731;29;20473;-72
2021/08/03 12:46:33;;;;;;;2.80;1.30;;;28.00;90.60;;;;;;4919460;29;20465;-72
2021/08/03 12:49:02;;;;;;;1.40;1.30;;;27.40;91.40;;;;;;4919840;29;20808;-72
2021/08/03 12:51:31;;;;;;;3.27;1.67;;;26.90;92.40;;;;;;4919860;29;20466;-72
2021/08/03 12:54:15;;;;;;;2.73;1.80;;;26.60;92.70;;;;;;4919380;29;20592;-72
2021/08/03 12:57:00;;;;;;;2.90;1.93;;;26.30;94.10;;;;;;4919630;29;20465;-73
2021/08/03 12:59:38;;;;;;;2.47;1.93;;;26.40;93.30;;;;;;4919258;29;20446;-73
2021/08/03 13:02:06;;;;;;;2.03;1.70;;;26.40;93.10;;;;;;4919011;29;20464;-73
2021/08/03 13:04:34;;;;;;;2.40;2.13;;;26.10;93.70;;;;;;4918737;29;20454;-73